sensor_id;sensor_type;location;lat;lon;timestamp;temperature;humidity
10249;DHT22;5169;50.560;9.714;2023-08-31T00:00:30;13.50;99.90
10249;DHT22;5169;50.560;9.714;2023-08-31T00:02:58;13.50;99.90
10249;DHT22;5169;50.560;9.714;2023-08-31T00:05:24;13.50;99.90
10249;DHT22;5169;50.560;9.714;2023-08-31T00:07:54;13.40;99.90
10249;DHT22;5169;50.560;9.714;2023-08-31T00:10:20;13.40;99.90
10249;DHT22;5169;50.560;9.714;2023-08-31T00:12:46;13.30;99.90
10249;DHT22;5169;50.560;9.714;2023-08-31T00:15:11;13.30;99.90
10249;DHT22;5169;50.560;9.714;2023-08-31T00:17:37;13.30;99.90
10249;DHT22;5169;50.560;9.714;2023-08-31T00:20:04;13.30;99.90
10249;DHT22;5169;50.560;9.714;2023-08-31T00:22:32;13.30;99.90
10249;DHT22;5169;50.560;9.714;2023-08-31T00:24:58;13.30;99.90
10249;DHT22;5169;50.560;9.714;2023-08-31T00:27:26;13.40;99.90
10249;DHT22;5169;50.560;9.714;2023-08-31T00:29:51;13.40;99.90
10249;DHT22;5169;50.560;9.714;2023-08-31T00:32:19;13.60;99.90
10249;DHT22;5169;50.560;9.714;2023-08-31T00:34:48;13.60;99.90
10249;DHT22;5169;50.560;9.714;2023-08-31T00:37:13;13.60;99.90
10249;DHT22;5169;50.560;9.714;2023-08-31T00:39:39;13.60;99.90
10249;DHT22;5169;50.560;9.714;2023-08-31T00:42:05;13.60;99.90
10249;DHT22;5169;50.560;9.714;2023-08-31T00:44:30;13.60;99.90
10249;DHT22;5169;50.560;9.714;2023-08-31T00:46:58;13.50;99.90
10249;DHT22;5169;50.560;9.714;2023-08-31T00:49:25;13.20;99.90
10249;DHT22;5169;50.560;9.714;2023-08-31T00:51:53;13.10;99.90
10249;DHT22;5169;50.560;9.714;2023-08-31T00:54:19;12.90;99.90
10249;DHT22;5169;50.560;9.714;2023-08-31T00:56:46;13.00;99.90
10249;DHT22;5169;50.560;9.714;2023-08-31T00:59:16;12.90;99.90
10249;DHT22;5169;50.560;9.714;2023-08-31T01:07:44;13.00;99.90
10249;DHT22;5169;50.560;9.714;2023-08-31T01:10:18;13.00;99.90
10249;DHT22;5169;50.560;9.714;2023-08-31T01:12:50;13.00;99.90
10249;DHT22;5169;50.560;9.714;2023-08-31T01:15:17;12.90;99.90
10249;DHT22;5169;50.560;9.714;2023-08-31T01:17:56;12.90;99.90
10249;DHT22;5169;50.560;9.714;2023-08-31T01:20:38;12.80;99.90
10249;DHT22;5169;50.560;9.714;2023-08-31T01:23:18;12.90;99.90
10249;DHT22;5169;50.560;9.714;2023-08-31T01:25:44;12.80;99.90
10249;DHT22;5169;50.560;9.714;2023-08-31T01:28:11;13.10;99.90
10249;DHT22;5169;50.560;9.714;2023-08-31T01:30:39;13.10;99.90
10249;DHT22;5169;50.560;9.714;2023-08-31T01:33:07;13.20;99.90
10249;DHT22;5169;50.560;9.714;2023-08-31T01:35:45;13.30;99.90
10249;DHT22;5169;50.560;9.714;2023-08-31T01:38:18;13.30;99.90
10249;DHT22;5169;50.560;9.714;2023-08-31T01:40:54;13.20;99.90
10249;DHT22;5169;50.560;9.714;2023-08-31T01:43:22;13.20;99.90
10249;DHT22;5169;50.560;9.714;2023-08-31T01:45:48;13.10;99.90
10249;DHT22;5169;50.560;9.714;2023-08-31T01:48:15;13.20;99.90
10249;DHT22;5169;50.560;9.714;2023-08-31T01:50:41;13.20;99.90
10249;DHT22;5169;50.560;9.714;2023-08-31T01:53:06;13.20;99.90
10249;DHT22;5169;50.560;9.714;2023-08-31T01:55:32;13.10;99.90
10249;DHT22;5169;50.560;9.714;2023-08-31T01:57:58;13.00;99.90
10249;DHT22;5169;50.560;9.714;2023-08-31T02:00:25;13.10;99.90
10249;DHT22;5169;50.560;9.714;2023-08-31T02:02:51;13.20;99.90
10249;DHT22;5169;50.560;9.714;2023-08-31T02:05:19;13.20;99.90
10249;DHT22;5169;50.560;9.714;2023-08-31T02:07:45;13.30;99.90
10249;DHT22;5169;50.560;9.714;2023-08-31T02:10:10;13.20;99.90
10249;DHT22;5169;50.560;9.714;2023-08-31T02:12:36;13.20;99.90
10249;DHT22;5169;50.560;9.714;2023-08-31T02:15:04;13.10;99.90
10249;DHT22;5169;50.560;9.714;2023-08-31T02:17:29;13.20;99.90
10249;DHT22;5169;50.560;9.714;2023-08-31T02:19:57;13.10;99.90
10249;DHT22;5169;50.560;9.714;2023-08-31T02:22:33;12.90;99.90
10249;DHT22;5169;50.560;9.714;2023-08-31T02:25:04;12.90;99.90
10249;DHT22;5169;50.560;9.714;2023-08-31T02:27:32;12.90;99.90
10249;DHT22;5169;50.560;9.714;2023-08-31T02:29:58;12.90;99.90
10249;DHT22;5169;50.560;9.714;2023-08-31T02:32:24;12.80;99.90
10249;DHT22;5169;50.560;9.714;2023-08-31T02:34:50;12.70;99.90
10249;DHT22;5169;50.560;9.714;2023-08-31T02:37:16;12.60;99.90
10249;DHT22;5169;50.560;9.714;2023-08-31T02:39:41;12.50;99.90
10249;DHT22;5169;50.560;9.714;2023-08-31T02:42:07;12.50;99.90
10249;DHT22;5169;50.560;9.714;2023-08-31T02:44:33;12.40;99.90
10249;DHT22;5169;50.560;9.714;2023-08-31T02:46:58;12.50;99.90
10249;DHT22;5169;50.560;9.714;2023-08-31T02:49:24;12.40;99.90
10249;DHT22;5169;50.560;9.714;2023-08-31T02:51:52;12.30;99.90
10249;DHT22;5169;50.560;9.714;2023-08-31T02:54:18;12.20;99.90
10249;DHT22;5169;50.560;9.714;2023-08-31T02:56:44;12.40;99.90
10249;DHT22;5169;50.560;9.714;2023-08-31T02:59:10;12.40;99.90
10249;DHT22;5169;50.560;9.714;2023-08-31T03:01:35;12.40;99.90
10249;DHT22;5169;50.560;9.714;2023-08-31T03:04:01;12.40;99.90
10249;DHT22;5169;50.560;9.714;2023-08-31T03:06:26;12.40;99.90
10249;DHT22;5169;50.560;9.714;2023-08-31T03:08:52;12.50;99.90
10249;DHT22;5169;50.560;9.714;2023-08-31T03:11:20;12.50;99.90
10249;DHT22;5169;50.560;9.714;2023-08-31T03:13:45;12.60;99.90
10249;DHT22;5169;50.560;9.714;2023-08-31T03:16:11;12.60;99.90
10249;DHT22;5169;50.560;9.714;2023-08-31T03:18:41;12.60;99.90
10249;DHT22;5169;50.560;9.714;2023-08-31T03:21:06;12.50;99.90
10249;DHT22;5169;50.560;9.714;2023-08-31T03:23:34;12.40;99.90
10249;DHT22;5169;50.560;9.714;2023-08-31T03:26:09;12.30;99.90
10249;DHT22;5169;50.560;9.714;2023-08-31T03:28:34;12.20;99.90
10249;DHT22;5169;50.560;9.714;2023-08-31T03:31:00;12.10;99.90
10249;DHT22;5169;50.560;9.714;2023-08-31T03:33:26;12.00;99.90
10249;DHT22;5169;50.560;9.714;2023-08-31T03:36:00;11.90;99.90
10249;DHT22;5169;50.560;9.714;2023-08-31T03:38:25;11.80;99.90
10249;DHT22;5169;50.560;9.714;2023-08-31T03:40:55;11.70;99.90
10249;DHT22;5169;50.560;9.714;2023-08-31T03:43:21;11.70;99.90
10249;DHT22;5169;50.560;9.714;2023-08-31T03:45:46;11.60;99.90
10249;DHT22;5169;50.560;9.714;2023-08-31T03:48:12;11.60;99.90
10249;DHT22;5169;50.560;9.714;2023-08-31T03:50:37;11.50;99.90
10249;DHT22;5169;50.560;9.714;2023-08-31T03:53:05;11.60;99.90
10249;DHT22;5169;50.560;9.714;2023-08-31T03:55:36;11.60;99.90
10249;DHT22;5169;50.560;9.714;2023-08-31T03:58:02;11.70;99.90
10249;DHT22;5169;50.560;9.714;2023-08-31T04:00:27;11.80;99.90
10249;DHT22;5169;50.560;9.714;2023-08-31T04:02:54;11.90;99.90
10249;DHT22;5169;50.560;9.714;2023-08-31T04:05:19;12.00;99.90
10249;DHT22;5169;50.560;9.714;2023-08-31T04:07:45;12.10;99.90
10249;DHT22;5169;50.560;9.714;2023-08-31T04:10:13;12.10;99.90
10249;DHT22;5169;50.560;9.714;2023-08-31T04:12:38;12.20;99.90
10249;DHT22;5169;50.560;9.714;2023-08-31T04:15:05;12.10;99.90
10249;DHT22;5169;50.560;9.714;2023-08-31T04:17:31;12.10;99.90
10249;DHT22;5169;50.560;9.714;2023-08-31T04:19:59;12.20;99.90
10249;DHT22;5169;50.560;9.714;2023-08-31T04:22:26;12.30;99.90
10249;DHT22;5169;50.560;9.714;2023-08-31T04:24:53;12.40;99.90
10249;DHT22;5169;50.560;9.714;2023-08-31T04:27:18;12.50;99.90
10249;DHT22;5169;50.560;9.714;2023-08-31T04:29:44;12.40;99.90
10249;DHT22;5169;50.560;9.714;2023-08-31T04:32:10;12.40;99.90
10249;DHT22;5169;50.560;9.714;2023-08-31T04:34:35;12.50;99.90
10249;DHT22;5169;50.560;9.714;2023-08-31T04:37:03;12.50;99.90
10249;DHT22;5169;50.560;9.714;2023-08-31T04:39:29;12.50;99.90
10249;DHT22;5169;50.560;9.714;2023-08-31T04:41:54;12.60;99.90
10249;DHT22;5169;50.560;9.714;2023-08-31T04:44:20;12.50;99.90
10249;DHT22;5169;50.560;9.714;2023-08-31T04:46:46;12.50;99.90
10249;DHT22;5169;50.560;9.714;2023-08-31T04:49:13;12.60;99.90
10249;DHT22;5169;50.560;9.714;2023-08-31T04:51:39;12.50;99.90
10249;DHT22;5169;50.560;9.714;2023-08-31T04:54:07;12.50;99.90
10249;DHT22;5169;50.560;9.714;2023-08-31T04:56:33;12.60;99.90
10249;DHT22;5169;50.560;9.714;2023-08-31T04:58:59;12.60;99.90
10249;DHT22;5169;50.560;9.714;2023-08-31T05:01:25;12.60;99.90
10249;DHT22;5169;50.560;9.714;2023-08-31T05:03:50;12.70;99.90
10249;DHT22;5169;50.560;9.714;2023-08-31T05:06:16;12.70;99.90
10249;DHT22;5169;50.560;9.714;2023-08-31T05:08:42;12.70;99.90
10249;DHT22;5169;50.560;9.714;2023-08-31T05:11:07;12.70;99.90
10249;DHT22;5169;50.560;9.714;2023-08-31T05:13:34;12.50;99.90
10249;DHT22;5169;50.560;9.714;2023-08-31T05:15:59;12.50;99.90
10249;DHT22;5169;50.560;9.714;2023-08-31T05:18:28;12.60;99.90
10249;DHT22;5169;50.560;9.714;2023-08-31T05:20:55;12.60;99.90
10249;DHT22;5169;50.560;9.714;2023-08-31T05:23:21;12.80;99.90
10249;DHT22;5169;50.560;9.714;2023-08-31T05:25:49;12.90;99.90
10249;DHT22;5169;50.560;9.714;2023-08-31T05:28:14;12.80;99.90
10249;DHT22;5169;50.560;9.714;2023-08-31T05:30:50;12.60;99.90
10249;DHT22;5169;50.560;9.714;2023-08-31T05:33:17;12.70;99.90
10249;DHT22;5169;50.560;9.714;2023-08-31T05:35:43;12.80;99.90
10249;DHT22;5169;50.560;9.714;2023-08-31T05:38:09;12.80;99.90
10249;DHT22;5169;50.560;9.714;2023-08-31T05:40:37;12.90;99.90
10249;DHT22;5169;50.560;9.714;2023-08-31T05:43:03;13.00;99.90
10249;DHT22;5169;50.560;9.714;2023-08-31T05:45:34;13.10;99.90
10249;DHT22;5169;50.560;9.714;2023-08-31T05:48:00;13.20;99.90
10249;DHT22;5169;50.560;9.714;2023-08-31T05:50:27;13.00;99.90
10249;DHT22;5169;50.560;9.714;2023-08-31T05:52:53;13.10;99.90
10249;DHT22;5169;50.560;9.714;2023-08-31T05:55:19;13.10;99.90
10249;DHT22;5169;50.560;9.714;2023-08-31T05:57:44;13.10;99.90
10249;DHT22;5169;50.560;9.714;2023-08-31T06:00:10;13.20;99.90
10249;DHT22;5169;50.560;9.714;2023-08-31T06:02:36;13.10;99.90
10249;DHT22;5169;50.560;9.714;2023-08-31T06:05:02;13.20;99.90
10249;DHT22;5169;50.560;9.714;2023-08-31T06:07:29;13.00;99.90
10249;DHT22;5169;50.560;9.714;2023-08-31T06:09:56;13.20;99.90
10249;DHT22;5169;50.560;9.714;2023-08-31T06:12:22;13.20;99.90
10249;DHT22;5169;50.560;9.714;2023-08-31T06:14:48;13.40;99.90
10249;DHT22;5169;50.560;9.714;2023-08-31T06:17:13;13.50;99.90
10249;DHT22;5169;50.560;9.714;2023-08-31T06:19:40;13.50;99.90
10249;DHT22;5169;50.560;9.714;2023-08-31T06:22:09;13.40;99.90
10249;DHT22;5169;50.560;9.714;2023-08-31T06:24:34;13.40;99.90
10249;DHT22;5169;50.560;9.714;2023-08-31T06:27:03;13.40;99.90
10249;DHT22;5169;50.560;9.714;2023-08-31T06:29:28;13.40;99.90
10249;DHT22;5169;50.560;9.714;2023-08-31T06:31:54;13.50;99.90
10249;DHT22;5169;50.560;9.714;2023-08-31T06:34:22;13.50;99.90
10249;DHT22;5169;50.560;9.714;2023-08-31T06:36:47;13.60;99.90
10249;DHT22;5169;50.560;9.714;2023-08-31T06:39:13;13.60;99.90
10249;DHT22;5169;50.560;9.714;2023-08-31T06:41:38;13.70;99.90
10249;DHT22;5169;50.560;9.714;2023-08-31T06:44:04;13.70;99.90
10249;DHT22;5169;50.560;9.714;2023-08-31T06:46:33;13.80;99.90
10249;DHT22;5169;50.560;9.714;2023-08-31T06:49:03;14.00;99.90
10249;DHT22;5169;50.560;9.714;2023-08-31T06:51:30;14.20;99.90
10249;DHT22;5169;50.560;9.714;2023-08-31T06:53:56;14.10;99.90
10249;DHT22;5169;50.560;9.714;2023-08-31T06:56:27;14.20;99.90
10249;DHT22;5169;50.560;9.714;2023-08-31T06:58:52;14.00;99.90
10249;DHT22;5169;50.560;9.714;2023-08-31T07:01:18;14.10;99.90
10249;DHT22;5169;50.560;9.714;2023-08-31T07:03:43;14.00;99.90
10249;DHT22;5169;50.560;9.714;2023-08-31T07:06:11;13.90;99.90
10249;DHT22;5169;50.560;9.714;2023-08-31T07:08:37;13.90;99.90
10249;DHT22;5169;50.560;9.714;2023-08-31T07:11:08;13.90;99.90
10249;DHT22;5169;50.560;9.714;2023-08-31T07:13:36;13.90;99.90
10249;DHT22;5169;50.560;9.714;2023-08-31T07:16:04;14.00;99.90
10249;DHT22;5169;50.560;9.714;2023-08-31T07:18:30;13.90;99.90
10249;DHT22;5169;50.560;9.714;2023-08-31T07:20:56;13.90;99.90
10249;DHT22;5169;50.560;9.714;2023-08-31T07:23:24;13.90;99.90
10249;DHT22;5169;50.560;9.714;2023-08-31T07:25:52;14.00;99.90
10249;DHT22;5169;50.560;9.714;2023-08-31T07:28:20;14.10;99.90
10249;DHT22;5169;50.560;9.714;2023-08-31T07:30:46;14.10;99.90
10249;DHT22;5169;50.560;9.714;2023-08-31T07:33:11;14.10;99.90
10249;DHT22;5169;50.560;9.714;2023-08-31T07:35:37;14.20;99.90
10249;DHT22;5169;50.560;9.714;2023-08-31T07:38:07;14.20;99.90
10249;DHT22;5169;50.560;9.714;2023-08-31T07:40:32;14.30;99.90
10249;DHT22;5169;50.560;9.714;2023-08-31T07:42:58;14.30;99.90
10249;DHT22;5169;50.560;9.714;2023-08-31T07:45:23;14.30;99.90
10249;DHT22;5169;50.560;9.714;2023-08-31T07:47:49;14.40;99.90
10249;DHT22;5169;50.560;9.714;2023-08-31T07:50:15;14.30;99.90
10249;DHT22;5169;50.560;9.714;2023-08-31T07:52:40;14.30;99.90
10249;DHT22;5169;50.560;9.714;2023-08-31T07:55:06;14.30;99.90
10249;DHT22;5169;50.560;9.714;2023-08-31T07:57:32;14.40;99.90
10249;DHT22;5169;50.560;9.714;2023-08-31T07:59:57;14.60;99.90
10249;DHT22;5169;50.560;9.714;2023-08-31T08:02:23;14.70;99.90
10249;DHT22;5169;50.560;9.714;2023-08-31T08:04:48;14.70;99.90
10249;DHT22;5169;50.560;9.714;2023-08-31T08:07:16;14.70;99.90
10249;DHT22;5169;50.560;9.714;2023-08-31T08:09:42;14.70;99.90
10249;DHT22;5169;50.560;9.714;2023-08-31T08:12:08;14.80;99.90
10249;DHT22;5169;50.560;9.714;2023-08-31T08:14:33;15.00;99.90
10249;DHT22;5169;50.560;9.714;2023-08-31T08:17:01;15.00;99.90
10249;DHT22;5169;50.560;9.714;2023-08-31T08:19:27;15.20;99.90
10249;DHT22;5169;50.560;9.714;2023-08-31T08:21:52;15.40;99.90
10249;DHT22;5169;50.560;9.714;2023-08-31T08:24:18;15.40;99.90
10249;DHT22;5169;50.560;9.714;2023-08-31T08:26:46;15.60;99.90
10249;DHT22;5169;50.560;9.714;2023-08-31T08:29:12;15.70;99.90
10249;DHT22;5169;50.560;9.714;2023-08-31T08:31:37;15.60;99.90
10249;DHT22;5169;50.560;9.714;2023-08-31T08:34:03;15.70;99.90
10249;DHT22;5169;50.560;9.714;2023-08-31T08:36:31;15.90;99.90
10249;DHT22;5169;50.560;9.714;2023-08-31T08:38:59;16.10;99.90
10249;DHT22;5169;50.560;9.714;2023-08-31T08:41:28;16.20;99.90
10249;DHT22;5169;50.560;9.714;2023-08-31T08:43:57;16.30;99.90
10249;DHT22;5169;50.560;9.714;2023-08-31T08:46:24;16.30;99.90
10249;DHT22;5169;50.560;9.714;2023-08-31T08:48:50;16.30;99.90
10249;DHT22;5169;50.560;9.714;2023-08-31T08:51:16;16.40;99.90
10249;DHT22;5169;50.560;9.714;2023-08-31T08:53:46;16.50;99.90
10249;DHT22;5169;50.560;9.714;2023-08-31T08:56:13;16.60;99.90
10249;DHT22;5169;50.560;9.714;2023-08-31T08:58:40;16.60;99.90
10249;DHT22;5169;50.560;9.714;2023-08-31T09:01:09;16.60;99.90
10249;DHT22;5169;50.560;9.714;2023-08-31T09:03:38;16.70;99.90
10249;DHT22;5169;50.560;9.714;2023-08-31T09:06:03;17.00;99.90
10249;DHT22;5169;50.560;9.714;2023-08-31T09:08:33;16.90;99.90
10249;DHT22;5169;50.560;9.714;2023-08-31T09:11:02;16.50;99.90
10249;DHT22;5169;50.560;9.714;2023-08-31T09:13:29;16.10;99.90
10249;DHT22;5169;50.560;9.714;2023-08-31T09:15:55;16.20;99.90
10249;DHT22;5169;50.560;9.714;2023-08-31T09:18:26;16.20;99.90
10249;DHT22;5169;50.560;9.714;2023-08-31T09:20:56;16.20;99.90
10249;DHT22;5169;50.560;9.714;2023-08-31T09:23:25;16.20;99.90
10249;DHT22;5169;50.560;9.714;2023-08-31T09:25:55;16.50;99.90
10249;DHT22;5169;50.560;9.714;2023-08-31T09:28:23;16.60;99.90
10249;DHT22;5169;50.560;9.714;2023-08-31T09:30:52;16.70;99.90
10249;DHT22;5169;50.560;9.714;2023-08-31T09:33:19;16.70;99.90
10249;DHT22;5169;50.560;9.714;2023-08-31T09:35:56;16.60;99.90
10249;DHT22;5169;50.560;9.714;2023-08-31T09:38:22;16.80;99.90
10249;DHT22;5169;50.560;9.714;2023-08-31T09:40:50;16.60;99.90
10249;DHT22;5169;50.560;9.714;2023-08-31T09:43:20;16.60;99.90
10249;DHT22;5169;50.560;9.714;2023-08-31T09:45:48;16.50;99.90
10249;DHT22;5169;50.560;9.714;2023-08-31T09:48:15;16.50;99.90
10249;DHT22;5169;50.560;9.714;2023-08-31T09:50:43;16.50;99.90
10249;DHT22;5169;50.560;9.714;2023-08-31T09:53:15;16.60;99.90
10249;DHT22;5169;50.560;9.714;2023-08-31T09:55:41;16.50;99.90
10249;DHT22;5169;50.560;9.714;2023-08-31T09:58:08;16.50;99.90
10249;DHT22;5169;50.560;9.714;2023-08-31T10:00:36;16.40;99.90
10249;DHT22;5169;50.560;9.714;2023-08-31T10:03:06;16.50;99.90
10249;DHT22;5169;50.560;9.714;2023-08-31T10:05:32;16.40;99.90
10249;DHT22;5169;50.560;9.714;2023-08-31T10:07:59;16.30;99.90
10249;DHT22;5169;50.560;9.714;2023-08-31T10:10:30;16.00;99.90
10249;DHT22;5169;50.560;9.714;2023-08-31T10:12:59;15.90;99.90
10249;DHT22;5169;50.560;9.714;2023-08-31T10:15:33;15.70;99.90
10249;DHT22;5169;50.560;9.714;2023-08-31T10:18:02;15.60;99.90
10249;DHT22;5169;50.560;9.714;2023-08-31T10:20:29;15.50;99.90
10249;DHT22;5169;50.560;9.714;2023-08-31T10:23:05;15.40;99.90
10249;DHT22;5169;50.560;9.714;2023-08-31T10:28:23;16.10;99.90
10249;DHT22;5169;50.560;9.714;2023-08-31T10:31:04;16.80;99.90
10249;DHT22;5169;50.560;9.714;2023-08-31T10:33:41;17.40;99.90
10249;DHT22;5169;50.560;9.714;2023-08-31T10:36:18;17.90;99.90
10249;DHT22;5169;50.560;9.714;2023-08-31T10:38:45;17.90;99.90
10249;DHT22;5169;50.560;9.714;2023-08-31T10:43:59;19.30;99.90
10249;DHT22;5169;50.560;9.714;2023-08-31T10:46:31;19.70;99.90
10249;DHT22;5169;50.560;9.714;2023-08-31T10:51:35;18.60;99.90
10249;DHT22;5169;50.560;9.714;2023-08-31T10:54:23;18.00;99.90
10249;DHT22;5169;50.560;9.714;2023-08-31T10:59:26;17.30;99.90
10249;DHT22;5169;50.560;9.714;2023-08-31T11:02:01;17.50;99.90
10249;DHT22;5169;50.560;9.714;2023-08-31T11:04:30;19.30;99.90
10249;DHT22;5169;50.560;9.714;2023-08-31T11:09:43;20.40;99.90
10249;DHT22;5169;50.560;9.714;2023-08-31T11:12:14;20.80;99.90
10249;DHT22;5169;50.560;9.714;2023-08-31T11:14:40;22.50;99.90
10249;DHT22;5169;50.560;9.714;2023-08-31T11:17:06;21.90;99.90
10249;DHT22;5169;50.560;9.714;2023-08-31T11:19:33;20.80;99.90
10249;DHT22;5169;50.560;9.714;2023-08-31T11:22:05;20.30;99.90
10249;DHT22;5169;50.560;9.714;2023-08-31T11:24:32;19.30;99.90
10249;DHT22;5169;50.560;9.714;2023-08-31T11:26:58;18.70;99.90
10249;DHT22;5169;50.560;9.714;2023-08-31T11:29:26;18.70;99.90
10249;DHT22;5169;50.560;9.714;2023-08-31T11:31:56;19.00;99.90
10249;DHT22;5169;50.560;9.714;2023-08-31T11:34:23;19.00;99.90
10249;DHT22;5169;50.560;9.714;2023-08-31T11:36:51;18.50;99.90
10249;DHT22;5169;50.560;9.714;2023-08-31T11:39:17;18.30;99.90
10249;DHT22;5169;50.560;9.714;2023-08-31T11:41:43;18.40;99.90
10249;DHT22;5169;50.560;9.714;2023-08-31T11:44:13;20.20;99.90
10249;DHT22;5169;50.560;9.714;2023-08-31T11:46:40;22.70;99.90
10249;DHT22;5169;50.560;9.714;2023-08-31T11:49:07;24.80;97.00
10249;DHT22;5169;50.560;9.714;2023-08-31T11:51:36;25.40;94.50
10249;DHT22;5169;50.560;9.714;2023-08-31T11:54:04;26.20;93.60
10249;DHT22;5169;50.560;9.714;2023-08-31T11:56:46;25.30;92.80
10249;DHT22;5169;50.560;9.714;2023-08-31T11:59:17;24.50;93.30
10249;DHT22;5169;50.560;9.714;2023-08-31T12:01:45;22.40;96.00
10249;DHT22;5169;50.560;9.714;2023-08-31T12:04:12;21.60;98.20
10249;DHT22;5169;50.560;9.714;2023-08-31T12:06:38;21.70;98.30
10249;DHT22;5169;50.560;9.714;2023-08-31T12:09:08;22.10;98.50
10249;DHT22;5169;50.560;9.714;2023-08-31T12:11:34;23.40;97.60
10249;DHT22;5169;50.560;9.714;2023-08-31T12:14:01;24.60;94.70
10249;DHT22;5169;50.560;9.714;2023-08-31T12:16:34;25.00;93.90
10249;DHT22;5169;50.560;9.714;2023-08-31T12:19:03;25.60;92.70
10249;DHT22;5169;50.560;9.714;2023-08-31T12:21:31;26.50;90.70
10249;DHT22;5169;50.560;9.714;2023-08-31T12:23:59;27.70;90.50
10249;DHT22;5169;50.560;9.714;2023-08-31T12:26:26;27.20;86.60
10249;DHT22;5169;50.560;9.714;2023-08-31T12:28:52;26.30;88.70
10249;DHT22;5169;50.560;9.714;2023-08-31T12:31:18;24.90;90.80
10249;DHT22;5169;50.560;9.714;2023-08-31T12:33:43;24.50;92.70
10249;DHT22;5169;50.560;9.714;2023-08-31T12:36:11;24.20;92.50
10249;DHT22;5169;50.560;9.714;2023-08-31T12:38:37;23.70;94.10
10249;DHT22;5169;50.560;9.714;2023-08-31T12:41:03;23.60;94.30
10249;DHT22;5169;50.560;9.714;2023-08-31T12:43:31;25.20;93.00
10249;DHT22;5169;50.560;9.714;2023-08-31T12:45:57;26.20;92.40
10249;DHT22;5169;50.560;9.714;2023-08-31T12:48:23;26.30;90.50
10249;DHT22;5169;50.560;9.714;2023-08-31T12:50:51;24.90;91.60
10249;DHT22;5169;50.560;9.714;2023-08-31T12:53:20;23.10;94.10
10249;DHT22;5169;50.560;9.714;2023-08-31T12:55:51;21.70;95.90
10249;DHT22;5169;50.560;9.714;2023-08-31T12:58:16;20.30;97.80
10249;DHT22;5169;50.560;9.714;2023-08-31T13:00:42;19.70;99.60
10249;DHT22;5169;50.560;9.714;2023-08-31T13:03:11;19.50;99.90
10249;DHT22;5169;50.560;9.714;2023-08-31T13:05:40;19.40;99.90
10249;DHT22;5169;50.560;9.714;2023-08-31T13:08:07;19.20;99.90
10249;DHT22;5169;50.560;9.714;2023-08-31T13:10:35;19.20;99.90
10249;DHT22;5169;50.560;9.714;2023-08-31T13:13:00;19.60;99.90
10249;DHT22;5169;50.560;9.714;2023-08-31T13:15:31;20.20;99.90
10249;DHT22;5169;50.560;9.714;2023-08-31T13:17:56;20.20;99.90
10249;DHT22;5169;50.560;9.714;2023-08-31T13:20:22;20.10;99.90
10249;DHT22;5169;50.560;9.714;2023-08-31T13:22:50;20.10;99.90
10249;DHT22;5169;50.560;9.714;2023-08-31T13:25:18;20.00;99.90
10249;DHT22;5169;50.560;9.714;2023-08-31T13:27:46;19.80;99.90
10249;DHT22;5169;50.560;9.714;2023-08-31T13:30:13;19.60;99.90
10249;DHT22;5169;50.560;9.714;2023-08-31T13:32:39;19.40;99.90
10249;DHT22;5169;50.560;9.714;2023-08-31T13:35:05;19.40;99.90
10249;DHT22;5169;50.560;9.714;2023-08-31T13:37:36;19.60;99.90
10249;DHT22;5169;50.560;9.714;2023-08-31T13:40:05;19.60;99.90
10249;DHT22;5169;50.560;9.714;2023-08-31T13:42:37;19.50;99.90
10249;DHT22;5169;50.560;9.714;2023-08-31T13:45:16;19.50;99.90
10249;DHT22;5169;50.560;9.714;2023-08-31T13:47:42;19.40;99.90
10249;DHT22;5169;50.560;9.714;2023-08-31T13:50:14;19.10;99.90
10249;DHT22;5169;50.560;9.714;2023-08-31T13:52:40;18.90;99.90
10249;DHT22;5169;50.560;9.714;2023-08-31T13:55:09;19.00;99.90
10249;DHT22;5169;50.560;9.714;2023-08-31T13:57:34;19.10;99.90
10249;DHT22;5169;50.560;9.714;2023-08-31T14:00:00;19.00;99.90
10249;DHT22;5169;50.560;9.714;2023-08-31T14:02:26;18.90;99.90
10249;DHT22;5169;50.560;9.714;2023-08-31T14:04:53;18.80;99.90
10249;DHT22;5169;50.560;9.714;2023-08-31T14:07:19;18.50;99.90
10249;DHT22;5169;50.560;9.714;2023-08-31T14:09:45;18.40;99.90
10249;DHT22;5169;50.560;9.714;2023-08-31T14:12:12;18.50;99.90
10249;DHT22;5169;50.560;9.714;2023-08-31T14:14:38;18.50;99.90
10249;DHT22;5169;50.560;9.714;2023-08-31T14:17:05;18.70;99.90
10249;DHT22;5169;50.560;9.714;2023-08-31T14:19:33;18.50;99.90
10249;DHT22;5169;50.560;9.714;2023-08-31T14:22:01;18.40;99.90
10249;DHT22;5169;50.560;9.714;2023-08-31T14:24:28;18.10;99.90
10249;DHT22;5169;50.560;9.714;2023-08-31T14:26:53;18.00;99.90
10249;DHT22;5169;50.560;9.714;2023-08-31T14:29:24;17.90;99.90
10249;DHT22;5169;50.560;9.714;2023-08-31T14:31:49;18.10;99.90
10249;DHT22;5169;50.560;9.714;2023-08-31T14:34:15;18.20;99.90
10249;DHT22;5169;50.560;9.714;2023-08-31T14:36:40;18.30;99.90
10249;DHT22;5169;50.560;9.714;2023-08-31T14:39:06;18.50;99.90
10249;DHT22;5169;50.560;9.714;2023-08-31T14:41:32;18.60;99.90
10249;DHT22;5169;50.560;9.714;2023-08-31T14:44:00;18.40;99.90
10249;DHT22;5169;50.560;9.714;2023-08-31T14:46:25;18.30;99.90
10249;DHT22;5169;50.560;9.714;2023-08-31T14:48:51;17.90;99.90
10249;DHT22;5169;50.560;9.714;2023-08-31T14:51:19;17.80;99.90
10249;DHT22;5169;50.560;9.714;2023-08-31T14:53:44;17.70;99.90
10249;DHT22;5169;50.560;9.714;2023-08-31T14:56:12;17.80;99.90
10249;DHT22;5169;50.560;9.714;2023-08-31T14:58:38;17.70;99.90
10249;DHT22;5169;50.560;9.714;2023-08-31T15:01:03;17.80;99.90
10249;DHT22;5169;50.560;9.714;2023-08-31T15:03:32;17.80;99.90
10249;DHT22;5169;50.560;9.714;2023-08-31T15:05:57;18.00;99.90
10249;DHT22;5169;50.560;9.714;2023-08-31T15:08:36;18.00;99.90
10249;DHT22;5169;50.560;9.714;2023-08-31T15:11:04;18.10;99.90
10249;DHT22;5169;50.560;9.714;2023-08-31T15:13:30;18.20;99.90
10249;DHT22;5169;50.560;9.714;2023-08-31T15:15:56;18.30;99.90
10249;DHT22;5169;50.560;9.714;2023-08-31T15:18:25;18.20;99.90
10249;DHT22;5169;50.560;9.714;2023-08-31T15:20:51;18.30;99.90
10249;DHT22;5169;50.560;9.714;2023-08-31T15:23:16;18.30;99.90
10249;DHT22;5169;50.560;9.714;2023-08-31T15:25:44;18.30;99.90
10249;DHT22;5169;50.560;9.714;2023-08-31T15:28:12;18.30;99.90
10249;DHT22;5169;50.560;9.714;2023-08-31T15:30:38;18.40;99.90
10249;DHT22;5169;50.560;9.714;2023-08-31T15:33:04;18.60;99.90
10249;DHT22;5169;50.560;9.714;2023-08-31T15:35:31;18.60;99.90
10249;DHT22;5169;50.560;9.714;2023-08-31T15:37:57;18.50;99.90
10249;DHT22;5169;50.560;9.714;2023-08-31T15:40:26;18.30;99.90
10249;DHT22;5169;50.560;9.714;2023-08-31T15:42:52;18.30;99.90
10249;DHT22;5169;50.560;9.714;2023-08-31T15:45:18;18.20;99.90
10249;DHT22;5169;50.560;9.714;2023-08-31T15:47:43;18.30;99.90
10249;DHT22;5169;50.560;9.714;2023-08-31T15:50:09;18.30;99.90
10249;DHT22;5169;50.560;9.714;2023-08-31T15:52:37;18.40;99.90
10249;DHT22;5169;50.560;9.714;2023-08-31T15:55:07;18.20;99.90
10249;DHT22;5169;50.560;9.714;2023-08-31T15:57:33;18.30;99.90
10249;DHT22;5169;50.560;9.714;2023-08-31T16:00:02;18.20;99.90
10249;DHT22;5169;50.560;9.714;2023-08-31T16:02:33;18.10;99.90
10249;DHT22;5169;50.560;9.714;2023-08-31T16:05:04;18.10;99.90